Anzahl Datensätze: 143
min. Temperatur: 4.7 °C
max. Temperatur: 9.5 °C
max. Windgeschwindigkeit: 21.6 km/h
Niederschlagsumme: 0.0 mm
| Datum |
Zeit |
Temp °C |
Feuchte % |
Taupunkt °C |
Luftdruck hPa |
Wind km/h |
Windrichtung |
Strahlung w/m² |
Niederschlag mm |
|---|---|---|---|---|---|---|---|---|---|
| 27.03.2025 | 00:07 | 6.8 | 79 | 3.3 | 1017.7 | 4.7 | NNO | 0 | 0.0 |
| 27.03.2025 | 00:17 | 6.8 | 79 | 3.4 | 1017.6 | 3.2 | N | 0 | 0.0 |
| 27.03.2025 | 00:27 | 6.7 | 80 | 3.4 | 1017.7 | 3.2 | NNO | 0 | 0.0 |
| 27.03.2025 | 00:37 | 6.7 | 81 | 3.6 | 1017.6 | 2.2 | NNO | 0 | 0.0 |
| 27.03.2025 | 00:47 | 6.8 | 79 | 3.3 | 1017.5 | 3.6 | NNO | 0 | 0.0 |
| 27.03.2025 | 00:57 | 6.7 | 80 | 3.4 | 1017.4 | 1.1 | N | 0 | 0.0 |
| 27.03.2025 | 01:07 | 6.8 | 80 | 3.5 | 1017.2 | 1.4 | N | 0 | 0.0 |
| 27.03.2025 | 01:17 | 6.4 | 83 | 3.7 | 1017.2 | 3.2 | N | 0 | 0.0 |
| 27.03.2025 | 01:27 | 6.6 | 79 | 3.2 | 1017.1 | 4.0 | NNO | 0 | 0.0 |
| 27.03.2025 | 01:37 | 6.6 | 79 | 3.2 | 1017.0 | 4.7 | NO | 0 | 0.0 |
| 27.03.2025 | 01:48 | 6.6 | 80 | 3.3 | 1016.9 | 2.5 | S | 0 | 0.0 |
| 27.03.2025 | 01:58 | 6.5 | 81 | 3.4 | 1016.9 | 1.1 | N | 0 | 0.0 |
| 27.03.2025 | 02:08 | 6.5 | 81 | 3.4 | 1016.7 | 0.7 | N | 0 | 0.0 |
| 27.03.2025 | 02:18 | 6.0 | 83 | 3.3 | 1016.7 | 6.8 | NNO | 0 | 0.0 |
| 27.03.2025 | 02:28 | 6.1 | 82 | 3.3 | 1016.6 | 5.4 | N | 0 | 0.0 |
| 27.03.2025 | 02:38 | 6.2 | 81 | 3.2 | 1016.5 | 4.0 | NO | 0 | 0.0 |
| 27.03.2025 | 02:48 | 6.3 | 80 | 3.2 | 1016.5 | 2.2 | N | 0 | 0.0 |
| 27.03.2025 | 02:58 | 6.1 | 81 | 3.2 | 1016.4 | 2.9 | NNO | 0 | 0.0 |
| 27.03.2025 | 03:08 | 6.0 | 82 | 3.2 | 1016.5 | 4.3 | NNO | 0 | 0.0 |
| 27.03.2025 | 03:18 | 6.1 | 82 | 3.2 | 1016.3 | 4.3 | NNO | 0 | 0.0 |
| 27.03.2025 | 03:28 | 6.2 | 81 | 3.1 | 1016.1 | 2.9 | NO | 0 | 0.0 |
| 27.03.2025 | 03:38 | 6.1 | 82 | 3.1 | 1016.1 | 4.0 | NNO | 0 | 0.0 |
| 27.03.2025 | 03:48 | 6.1 | 81 | 3.0 | 1016.0 | 3.2 | NNO | 0 | 0.0 |
| 27.03.2025 | 03:58 | 6.1 | 80 | 2.9 | 1016.0 | 1.8 | NO | 0 | 0.0 |
| 27.03.2025 | 04:08 | 5.9 | 82 | 3.0 | 1016.1 | 1.8 | N | 0 | 0.0 |
| 27.03.2025 | 04:18 | 5.9 | 82 | 3.0 | 1016.1 | 2.5 | NNO | 0 | 0.0 |
| 27.03.2025 | 04:28 | 6.1 | 80 | 3.0 | 1016.0 | 7.9 | NO | 0 | 0.0 |
| 27.03.2025 | 04:38 | 6.1 | 80 | 2.9 | 1016.1 | 4.0 | NNO | 0 | 0.0 |
| 27.03.2025 | 04:48 | 6.1 | 81 | 3.1 | 1016.1 | 2.2 | S | 0 | 0.0 |
| 27.03.2025 | 04:58 | 6.1 | 81 | 3.0 | 1015.9 | 2.2 | NNO | 0 | 0.0 |
| 27.03.2025 | 05:08 | 6.1 | 81 | 3.1 | 1016.0 | 3.2 | N | 0 | 0.0 |
| 27.03.2025 | 05:18 | 6.1 | 81 | 3.2 | 1016.0 | 1.1 | WSW | 0 | 0.0 |
| 27.03.2025 | 05:28 | 6.1 | 81 | 3.1 | 1016.0 | 4.3 | NNO | 0 | 0.0 |
| 27.03.2025 | 05:38 | 6.1 | 81 | 3.0 | 1015.9 | 3.2 | NNO | 0 | 0.0 |
| 27.03.2025 | 05:48 | 6.1 | 80 | 3.0 | 1015.9 | 7.6 | NNO | 0 | 0.0 |
| 27.03.2025 | 05:58 | 6.1 | 80 | 3.0 | 1015.7 | 4.7 | NNO | 0 | 0.0 |
| 27.03.2025 | 06:08 | 6.1 | 80 | 2.9 | 1015.7 | 2.9 | NO | 0 | 0.0 |
| 27.03.2025 | 06:18 | 6.1 | 81 | 3.0 | 1015.8 | 2.2 | NO | 0 | 0.0 |
| 27.03.2025 | 06:28 | 6.1 | 80 | 3.0 | 1015.8 | 7.2 | W | 2 | 0.0 |
| 27.03.2025 | 06:38 | 6.2 | 79 | 2.8 | 1015.8 | 3.6 | N | 5 | 0.0 |
| 27.03.2025 | 06:48 | 6.2 | 80 | 2.9 | 1015.6 | 7.6 | NO | 7 | 0.0 |
| 27.03.2025 | 06:58 | 6.3 | 79 | 3.0 | 1015.7 | 2.9 | ONO | 11 | 0.0 |
| 27.03.2025 | 07:09 | 6.2 | 80 | 3.1 | 1015.7 | 3.2 | NW | 15 | 0.0 |
| 27.03.2025 | 07:19 | 6.2 | 81 | 3.2 | 1015.6 | 3.2 | NW | 23 | 0.0 |
| 27.03.2025 | 07:29 | 6.2 | 81 | 3.2 | 1015.5 | 2.9 | N | 24 | 0.0 |
| 27.03.2025 | 07:39 | 6.2 | 81 | 3.2 | 1015.3 | 4.3 | SW | 31 | 0.0 |
| 27.03.2025 | 07:49 | 6.3 | 80 | 3.2 | 1015.3 | 1.1 | NNW | 38 | 0.0 |
| 27.03.2025 | 07:59 | 6.3 | 80 | 3.1 | 1015.4 | 1.1 | N | 39 | 0.0 |
| 27.03.2025 | 08:09 | 6.3 | 80 | 3.1 | 1015.4 | 2.9 | SSW | 41 | 0.0 |
| 27.03.2025 | 08:19 | 6.4 | 79 | 3.1 | 1015.4 | 1.8 | W | 43 | 0.0 |
| 27.03.2025 | 08:29 | 6.4 | 79 | 3.0 | 1015.3 | 2.5 | W | 58 | 0.0 |
| 27.03.2025 | 08:39 | 6.6 | 79 | 3.1 | 1015.3 | 6.8 | NNW | 68 | 0.0 |
| 27.03.2025 | 08:49 | 6.6 | 79 | 3.1 | 1015.3 | 1.8 | NNO | 91 | 0.0 |
| 27.03.2025 | 08:59 | 6.5 | 79 | 3.0 | 1015.3 | 3.2 | NNO | 96 | 0.0 |
| 27.03.2025 | 09:09 | 6.5 | 80 | 3.3 | 1015.4 | 1.4 | N | 88 | 0.0 |
| 27.03.2025 | 09:19 | 6.6 | 79 | 3.2 | 1015.4 | 2.5 | S | 91 | 0.0 |
| 27.03.2025 | 09:29 | 6.6 | 79 | 3.3 | 1015.4 | 9.7 | S | 88 | 0.0 |
| 27.03.2025 | 09:39 | 6.7 | 80 | 3.4 | 1015.4 | 10.8 | W | 101 | 0.0 |
| 27.03.2025 | 09:49 | 6.8 | 78 | 3.2 | 1015.3 | 2.2 | S | 112 | 0.0 |
| 27.03.2025 | 09:59 | 6.7 | 78 | 3.2 | 1015.3 | 4.3 | S | 95 | 0.0 |
| 27.03.2025 | 10:09 | 6.9 | 78 | 3.4 | 1015.3 | 1.8 | WSW | 130 | 0.0 |
| 27.03.2025 | 10:19 | 6.8 | 76 | 3.0 | 1015.4 | 0.4 | N | 121 | 0.0 |
| 27.03.2025 | 10:29 | 7.0 | 76 | 3.0 | 1015.3 | 0.7 | NNO | 132 | 0.0 |
| 27.03.2025 | 10:39 | 7.2 | 76 | 3.2 | 1015.2 | 3.6 | SSO | 154 | 0.0 |
| 27.03.2025 | 10:49 | 7.1 | 74 | 2.8 | 1015.1 | 6.8 | S | 121 | 0.0 |
| 27.03.2025 | 10:59 | 7.5 | 72 | 2.8 | 1015.0 | 5.4 | NNO | 128 | 0.0 |
| 27.03.2025 | 11:09 | 7.3 | 73 | 2.8 | 1015.0 | 2.9 | N | 152 | 0.0 |
| 27.03.2025 | 11:19 | 7.4 | 73 | 2.9 | 1015.0 | 2.9 | N | 142 | 0.0 |
| 27.03.2025 | 11:29 | 7.3 | 72 | 2.7 | 1014.9 | 4.0 | NNO | 177 | 0.0 |
| 27.03.2025 | 11:39 | 8.1 | 70 | 3.0 | 1014.8 | 2.2 | N | 177 | 0.0 |
| 27.03.2025 | 11:49 | 8.4 | 68 | 2.9 | 1014.6 | 6.1 | N | 202 | 0.0 |
| 27.03.2025 | 11:59 | 8.3 | 69 | 3.0 | 1014.7 | 6.5 | WSW | 199 | 0.0 |
| 27.03.2025 | 12:09 | 8.1 | 69 | 2.8 | 1014.6 | 2.2 | WSW | 205 | 0.0 |
| 27.03.2025 | 12:19 | 8.3 | 69 | 3.0 | 1014.6 | 4.0 | S | 214 | 0.0 |
| 27.03.2025 | 12:30 | 8.4 | 69 | 3.1 | 1014.4 | 2.2 | WSW | 228 | 0.0 |
| 27.03.2025 | 12:40 | 8.7 | 69 | 3.3 | 1014.3 | 2.2 | N | 237 | 0.0 |
| 27.03.2025 | 12:50 | 8.9 | 68 | 3.4 | 1014.4 | 5.4 | N | 252 | 0.0 |
| 27.03.2025 | 13:00 | 8.6 | 69 | 3.2 | 1014.3 | 2.2 | SSW | 302 | 0.0 |
| 27.03.2025 | 13:10 | 9.0 | 67 | 3.1 | 1014.2 | 10.8 | SSO | 261 | 0.0 |
| 27.03.2025 | 13:20 | 8.8 | 68 | 3.2 | 1014.2 | 4.3 | SSW | 258 | 0.0 |
| 27.03.2025 | 13:30 | 8.9 | 68 | 3.2 | 1014.2 | 9.4 | S | 249 | 0.0 |
| 27.03.2025 | 13:40 | 9.0 | 67 | 3.3 | 1014.1 | 4.3 | N | 252 | 0.0 |
| 27.03.2025 | 13:50 | 8.9 | 67 | 3.1 | 1014.0 | 4.3 | SSW | 283 | 0.0 |
| 27.03.2025 | 14:00 | 9.4 | 65 | 3.3 | 1013.8 | 2.2 | WNW | 311 | 0.0 |
| 27.03.2025 | 14:10 | 9.5 | 65 | 3.2 | 1013.8 | 7.9 | NO | 286 | 0.0 |
| 27.03.2025 | 14:20 | 9.3 | 65 | 3.0 | 1013.6 | 0.7 | N | 234 | 0.0 |
| 27.03.2025 | 14:30 | 9.2 | 66 | 3.1 | 1013.7 | 10.8 | N | 188 | 0.0 |
| 27.03.2025 | 14:40 | 8.9 | 67 | 3.0 | 1013.9 | 9.7 | SSO | 167 | 0.0 |
| 27.03.2025 | 14:50 | 9.1 | 67 | 3.2 | 1013.8 | 7.9 | SSW | 151 | 0.0 |
| 27.03.2025 | 15:00 | 8.7 | 68 | 3.0 | 1013.8 | 1.4 | SSW | 143 | 0.0 |
| 27.03.2025 | 15:10 | 9.0 | 67 | 3.1 | 1013.6 | 5.8 | NNW | 132 | 0.0 |
| 27.03.2025 | 15:20 | 9.0 | 66 | 3.0 | 1013.8 | 2.5 | N | 112 | 0.0 |
| 27.03.2025 | 15:30 | 8.6 | 66 | 2.7 | 1013.9 | 1.8 | SSW | 108 | 0.0 |
| 27.03.2025 | 15:40 | 8.8 | 67 | 2.9 | 1013.8 | 5.4 | NNO | 106 | 0.0 |
| 27.03.2025 | 15:50 | 8.3 | 68 | 2.6 | 1014.0 | 3.6 | NNO | 101 | 0.0 |
| 27.03.2025 | 16:00 | 8.8 | 66 | 2.8 | 1013.9 | 2.2 | NNO | 107 | 0.0 |
| 27.03.2025 | 16:10 | 8.7 | 66 | 2.8 | 1013.9 | 1.1 | S | 100 | 0.0 |
| 27.03.2025 | 16:20 | 8.9 | 66 | 2.8 | 1013.7 | 3.6 | N | 100 | 0.0 |
| 27.03.2025 | 16:30 | 9.0 | 66 | 2.9 | 1013.6 | 1.4 | N | 95 | 0.0 |
| 27.03.2025 | 16:40 | 9.0 | 65 | 2.7 | 1013.7 | 6.5 | SSW | 82 | 0.0 |
| 27.03.2025 | 16:50 | 8.9 | 66 | 2.8 | 1013.6 | 4.3 | WNW | 69 | 0.0 |
| 27.03.2025 | 17:00 | 8.9 | 66 | 2.9 | 1013.6 | 0.4 | N | 63 | 0.0 |
| 27.03.2025 | 17:10 | 8.9 | 66 | 2.9 | 1013.7 | 5.4 | SSO | 61 | 0.0 |
| 27.03.2025 | 17:20 | 8.8 | 66 | 2.8 | 1013.6 | 4.0 | SSW | 55 | 0.0 |
| 27.03.2025 | 17:30 | 8.7 | 67 | 2.8 | 1013.9 | 4.7 | SSW | 45 | 0.0 |
| 27.03.2025 | 17:40 | 8.4 | 67 | 2.7 | 1013.8 | 5.4 | NNO | 40 | 0.0 |
| 27.03.2025 | 17:51 | 8.4 | 67 | 2.7 | 1013.8 | 4.0 | NW | 33 | 0.0 |
| 27.03.2025 | 18:01 | 8.3 | 68 | 2.7 | 1013.9 | 2.2 | NNW | 25 | 0.0 |
| 27.03.2025 | 18:11 | 8.2 | 69 | 2.7 | 1013.9 | 1.8 | NNW | 20 | 0.0 |
| 27.03.2025 | 18:21 | 8.1 | 69 | 2.7 | 1013.9 | 2.2 | SSO | 12 | 0.0 |
| 27.03.2025 | 18:31 | 7.9 | 70 | 2.7 | 1013.8 | 1.8 | NO | 7 | 0.0 |
| 27.03.2025 | 18:41 | 7.9 | 70 | 2.8 | 1013.9 | 3.6 | N | 4 | 0.0 |
| 27.03.2025 | 18:51 | 7.8 | 70 | 2.7 | 1014.0 | 5.4 | N | 0 | 0.0 |
| 27.03.2025 | 19:01 | 7.7 | 71 | 2.8 | 1013.9 | 6.8 | NNO | 0 | 0.0 |
| 27.03.2025 | 19:11 | 7.7 | 71 | 2.7 | 1013.9 | 3.6 | NNO | 0 | 0.0 |
| 27.03.2025 | 19:21 | 7.5 | 72 | 2.8 | 1014.1 | 0.4 | N | 0 | 0.0 |
| 27.03.2025 | 19:31 | 7.5 | 72 | 2.8 | 1014.0 | 2.9 | NNO | 0 | 0.0 |
| 27.03.2025 | 19:41 | 7.4 | 73 | 2.9 | 1014.1 | 2.5 | NNO | 0 | 0.0 |
| 27.03.2025 | 19:51 | 7.4 | 72 | 2.7 | 1014.1 | 5.8 | NNO | 0 | 0.0 |
| 27.03.2025 | 20:01 | 7.3 | 73 | 2.8 | 1014.1 | 4.3 | WSW | 0 | 0.0 |
| 27.03.2025 | 20:11 | 7.3 | 73 | 2.7 | 1014.1 | 5.8 | NO | 0 | 0.0 |
| 27.03.2025 | 20:21 | 7.3 | 72 | 2.7 | 1014.2 | 5.8 | NNO | 0 | 0.0 |
| 27.03.2025 | 20:31 | 7.2 | 73 | 2.7 | 1014.1 | 11.9 | NO | 0 | 0.0 |
| 27.03.2025 | 20:41 | 7.2 | 73 | 2.6 | 1014.2 | 1.1 | S | 0 | 0.0 |
| 27.03.2025 | 20:51 | 7.2 | 73 | 2.6 | 1014.2 | 3.2 | S | 0 | 0.0 |
| 27.03.2025 | 21:01 | 7.2 | 73 | 2.7 | 1014.1 | 1.4 | N | 0 | 0.0 |
| 27.03.2025 | 21:11 | 7.0 | 73 | 2.6 | 1014.1 | 2.5 | S | 0 | 0.0 |
| 27.03.2025 | 21:21 | 7.2 | 72 | 2.5 | 1013.9 | 3.6 | NNO | 0 | 0.0 |
| 27.03.2025 | 21:31 | 7.2 | 73 | 2.6 | 1013.9 | 1.4 | N | 0 | 0.0 |
| 27.03.2025 | 21:41 | 7.0 | 74 | 2.7 | 1013.9 | 2.2 | N | 0 | 0.0 |
| 27.03.2025 | 21:51 | 7.0 | 74 | 2.5 | 1013.9 | 1.8 | S | 0 | 0.0 |
| 27.03.2025 | 22:01 | 6.8 | 75 | 2.6 | 1013.7 | 0.4 | N | 0 | 0.0 |
| 27.03.2025 | 22:11 | 6.9 | 74 | 2.7 | 1013.8 | 2.2 | S | 0 | 0.0 |
| 27.03.2025 | 22:21 | 6.7 | 76 | 2.7 | 1013.7 | 2.2 | NO | 0 | 0.0 |
| 27.03.2025 | 22:31 | 6.5 | 76 | 2.6 | 1013.8 | 2.5 | N | 0 | 0.0 |
| 27.03.2025 | 22:41 | 6.2 | 77 | 2.4 | 1013.8 | 1.8 | N | 0 | 0.0 |
| 27.03.2025 | 22:51 | 5.7 | 79 | 2.3 | 1013.7 | 3.6 | NO | 0 | 0.0 |
| 27.03.2025 | 23:02 | 5.6 | 78 | 2.1 | 1013.7 | 4.0 | NO | 0 | 0.0 |
| 27.03.2025 | 23:12 | 5.6 | 78 | 1.9 | 1013.7 | 2.9 | NO | 0 | 0.0 |
| 27.03.2025 | 23:22 | 5.2 | 78 | 1.7 | 1013.7 | 5.4 | N | 0 | 0.0 |
| 27.03.2025 | 23:32 | 5.0 | 79 | 1.6 | 1013.7 | 3.2 | NO | 0 | 0.0 |
| 27.03.2025 | 23:42 | 4.7 | 78 | 1.2 | 1013.9 | 4.3 | NNO | 0 | 0.0 |
| 27.03.2025 | 23:52 | 5.0 | 77 | 1.3 | 1013.8 | 3.6 | NNO | 0 | 0.0 |